Latest Weather Observations for Ocean Reef

IDW60901

Issued at 11:01 pm WST Tuesday 28 January 2020 (issued every 10 minutes, with the page automatically refreshed every 10 minutes)

About weather observations | Map of Perth area stations | Latest observations for Perth area | Other Formats
Station Details ID: 009214 Name: OCEAN REEF Lat: -31.76 Lon: 115.73 Height: 10.0 m
Data from the previous 72 hours. | See also: Recent months at Ocean Reef
Date/Time
WST
Temp
°C
App
Temp
°C
Dew
Point
°C
Rel
Hum
%
Delta-T
°C
Wind Press
QNH
hPa
Press
MSL
hPa
Rain since
9am
mm
Dir  Spd
km/h
Gust
km/h
Spd
kts
Gust
kts
28/11:00pm - - - - - SSW 32 37 17 20 - - -
28/10:30pm - - - - - SSW 32 37 17 20 - - -
28/10:00pm - - - - - SSW 32 35 17 19 - - -
28/09:30pm - - - - - SSW 35 41 19 22 - - -
28/09:00pm - - - - - SSW 35 41 19 22 - - -
28/08:30pm - - - - - SSW 32 37 17 20 - - -
28/08:00pm - - - - - SSW 28 33 15 18 - - -
28/07:30pm - - - - - SSW 26 32 14 17 - - -
28/07:00pm - - - - - SSW 28 35 15 19 - - -
28/06:30pm - - - - - SSW 28 32 15 17 - - -
28/06:00pm - - - - - SSW 26 32 14 17 - - -
28/05:30pm - - - - - SSW 26 30 14 16 - - -
28/05:00pm - - - - - SSW 28 35 15 19 - - -
28/04:30pm - - - - - SSW 30 35 16 19 - - -
28/04:00pm - - - - - SSW 32 35 17 19 - - -
28/03:30pm - - - - - SSW 28 32 15 17 - - -
28/03:00pm - - - - - SSW 30 35 16 19 - - -
28/02:30pm - - - - - SSW 28 33 15 18 - - -
28/02:00pm - - - - - SSW 28 33 15 18 - - -
28/01:30pm - - - - - SSW 24 30 13 16 - - -
28/01:00pm - - - - - SSW 24 28 13 15 - - -
28/12:30pm - - - - - SSW 28 33 15 18 - - -
28/12:00pm - - - - - SSW 26 32 14 17 - - -
28/11:30am - - - - - SSW 28 32 15 17 - - -
28/11:00am - - - - - SSW 26 30 14 16 - - -
28/10:30am - - - - - SSW 17 22 9 12 - - -
28/10:00am - - - - - S 13 15 7 8 - - -
28/09:30am - - - - - S 15 17 8 9 - - -
28/09:00am - - - - - SSW 19 20 10 11 - - -
28/08:30am - - - - - SSW 15 19 8 10 - - -
28/08:00am - - - - - S 13 19 7 10 - - -
28/07:30am - - - - - S 11 13 6 7 - - -
28/07:00am - - - - - SSE 11 13 6 7 - - -
28/06:30am - - - - - SSE 11 13 6 7 - - -
28/06:00am - - - - - SSE 11 11 6 6 - - -
28/05:30am - - - - - SSE 9 9 5 5 - - -
28/05:00am - - - - - SSE 11 11 6 6 - - -
28/04:30am - - - - - SSE 9 9 5 5 - - -
28/04:00am - - - - - SSE 9 9 5 5 - - -
28/03:30am - - - - - SE 7 9 4 5 - - -
28/03:00am - - - - - SSE 7 9 4 5 - - -
28/02:30am - - - - - SSE 11 11 6 6 - - -
28/02:00am - - - - - SSE 9 11 5 6 - - -
28/01:30am - - - - - SSE 7 9 4 5 - - -
28/01:00am - - - - - SSE 11 13 6 7 - - -
28/12:30am - - - - - SSE 11 13 6 7 - - -
28/12:00am - - - - - S 9 11 5 6 - - -
 
Date/Time
WST
Temp
°C
App
Temp
°C
Dew
Point
°C
Rel
Hum
%
Delta-T
°C
Wind Press
QNH
hPa
Press
MSL
hPa
Rain since
9am
mm
Dir  Spd
km/h
Gust
km/h
Spd
kts
Gust
kts
27/11:30pm - - - - - SSE 9 9 5 5 - - -
27/11:00pm - - - - - SSE 9 9 5 5 - - -
27/10:30pm - - - - - SSE 9 11 5 6 - - -
27/10:00pm - - - - - SSE 13 15 7 8 - - -
27/09:30pm - - - - - SSE 15 19 8 10 - - -
27/09:00pm - - - - - S 19 24 10 13 - - -
27/08:30pm - - - - - S 20 26 11 14 - - -
27/08:00pm - - - - - S 17 20 9 11 - - -
27/07:30pm - - - - - S 20 24 11 13 - - -
27/07:00pm - - - - - S 20 24 11 13 - - -
27/06:30pm - - - - - S 24 30 13 16 - - -
27/06:00pm - - - - - S 22 28 12 15 - - -
27/05:30pm - - - - - S 26 32 14 17 - - -
27/05:00pm - - - - - S 20 28 11 15 - - -
27/04:30pm - - - - - S 22 26 12 14 - - -
27/04:00pm - - - - - S 20 26 11 14 - - -
27/03:30pm - - - - - S 22 26 12 14 - - -
27/03:00pm - - - - - S 24 30 13 16 - - -
27/02:30pm - - - - - S 26 32 14 17 - - -
27/02:00pm - - - - - S 24 30 13 16 - - -
27/01:30pm - - - - - S 26 33 14 18 - - -
27/01:00pm - - - - - S 26 32 14 17 - - -
27/12:30pm - - - - - S 24 30 13 16 - - -
27/12:00pm - - - - - S 20 28 11 15 - - -
27/11:30am - - - - - S 20 26 11 14 - - -
27/11:00am - - - - - SSW 24 32 13 17 - - -
27/10:30am - - - - - S 15 24 8 13 - - -
27/10:00am - - - - - E 15 24 8 13 - - -
27/09:30am - - - - - ENE 22 33 12 18 - - -
27/09:00am - - - - - ENE 32 43 17 23 - - -
27/08:30am - - - - - ENE 30 43 16 23 - - -
27/08:00am - - - - - E 19 35 10 19 - - -
27/07:30am - - - - - E 17 24 9 13 - - -
27/07:00am - - - - - E 15 22 8 12 - - -
27/06:30am - - - - - E 13 22 7 12 - - -
27/06:00am - - - - - ESE 13 20 7 11 - - -
27/05:30am - - - - - E 17 26 9 14 - - -
27/05:00am - - - - - E 19 28 10 15 - - -
27/04:30am - - - - - E 19 28 10 15 - - -
27/04:00am - - - - - E 22 32 12 17 - - -
27/03:30am - - - - - E 22 30 12 16 - - -
27/03:00am - - - - - E 17 22 9 12 - - -
27/02:30am - - - - - E 17 20 9 11 - - -
27/02:00am - - - - - ESE 13 19 7 10 - - -
27/01:30am - - - - - SE 13 17 7 9 - - -
27/01:00am - - - - - SE 13 15 7 8 - - -
27/12:30am - - - - - SE 11 11 6 6 - - -
27/12:00am - - - - - SSE 6 7 3 4 - - -
 
Date/Time
WST
Temp
°C
App
Temp
°C
Dew
Point
°C
Rel
Hum
%
Delta-T
°C
Wind Press
QNH
hPa
Press
MSL
hPa
Rain since
9am
mm
Dir  Spd
km/h
Gust
km/h
Spd
kts
Gust
kts
26/11:30pm - - - - - SSE 11 15 6 8 - - -
26/11:00pm - - - - - S 13 15 7 8 - - -
26/10:30pm - - - - - SSE 15 20 8 11 - - -
26/10:00pm - - - - - SSE 13 19 7 10 - - -
26/09:30pm - - - - - S 17 22 9 12 - - -
26/09:00pm - - - - - S 19 24 10 13 - - -
26/08:30pm - - - - - S 26 30 14 16 - - -
26/08:00pm - - - - - S 22 30 12 16 - - -
26/07:30pm - - - - - S 26 32 14 17 - - -
26/07:00pm - - - - - S 28 33 15 18 - - -
26/06:30pm - - - - - S 30 37 16 20 - - -
26/06:00pm - - - - - S 28 35 15 19 - - -
26/05:30pm - - - - - S 30 37 16 20 - - -
26/05:00pm - - - - - S 30 35 16 19 - - -
26/04:30pm - - - - - S 32 39 17 21 - - -
26/04:00pm - - - - - S 30 37 16 20 - - -
26/03:30pm - - - - - S 30 35 16 19 - - -
26/03:00pm - - - - - S 30 35 16 19 - - -
26/02:30pm - - - - - S 30 35 16 19 - - -
26/02:00pm - - - - - S 26 32 14 17 - - -
26/01:30pm - - - - - S 26 32 14 17 - - -
26/01:00pm - - - - - S 28 32 15 17 - - -
26/12:30pm - - - - - S 28 33 15 18 - - -
26/12:00pm - - - - - S 28 32 15 17 - - -
26/11:30am - - - - - SSW 26 33 14 18 - - -
26/11:00am - - - - - SSW 30 33 16 18 - - -
26/10:30am - - - - - SSW 24 30 13 16 - - -
26/10:00am - - - - - SE 13 19 7 10 - - -
26/09:30am - - - - - SE 15 22 8 12 - - -
26/09:00am - - - - - SE 15 24 8 13 - - -
26/08:30am - - - - - ESE 13 26 7 14 - - -
26/08:00am - - - - - ESE 17 26 9 14 - - -
26/07:30am - - - - - SE 17 26 9 14 - - -
26/07:00am - - - - - SE 13 19 7 10 - - -
26/06:30am - - - - - SE 13 20 7 11 - - -
26/06:00am - - - - - SSE 9 13 5 7 - - -
26/05:30am - - - - - SSE 9 11 5 6 - - -
26/05:00am - - - - - SSE 13 17 7 9 - - -
26/04:30am - - - - - SSE 13 15 7 8 - - -
26/04:00am - - - - - SSE 13 15 7 8 - - -
26/03:30am - - - - - SE 13 17 7 9 - - -
26/03:00am - - - - - SSE 13 17 7 9 - - -
26/02:30am - - - - - SE 13 15 7 8 - - -
26/02:00am - - - - - SSE 15 20 8 11 - - -
26/01:30am - - - - - SSE 19 26 10 14 - - -
26/01:00am - - - - - S 28 35 15 19 - - -
26/12:30am - - - - - S 28 35 15 19 - - -
26/12:00am - - - - - S 30 35 16 19 - - -
 
Date/Time
WST
Temp
°C
App
Temp
°C
Dew
Point
°C
Rel
Hum
%
Delta-T
°C
Wind Press
QNH
hPa
Press
MSL
hPa
Rain since
9am
mm
Dir  Spd
km/h
Gust
km/h
Spd
kts
Gust
kts
25/11:30pm - - - - - S 26 28 14 15 - - -

Latest Capital City Observations: Canberra | Sydney | Melbourne | Brisbane | Adelaide | Perth | Hobart | Darwin

Other formats

Comma delimited format used in spreadsheet applications
http://www.bom.gov.au/fwo/IDW60901/IDW60901.94607.axf

JavaScript Object Notation format (JSON) in row-major order
http://www.bom.gov.au/fwo/IDW60901/IDW60901.94607.json

Data quality

Most of these data are generated automatically and are frequently updated. Quality checks on data are not normally performed. It is possible for incorrect values to appear. Refer to information at About Latest Weather Observations and please check the disclaimer before using these data.